Time;durP1;ratioP1;P1;durP2;ratioP2;P2;SDS_P1;SDS_P2;PMS_P1;PMS_P2;Temp;Humidity;BMP_temperature;BMP_pressure;BME280_temperature;BME280_humidity;BME280_pressure;Samples;Min_cycle;Max_cycle;Signal;HPM_P1;HPM_P2
2023/08/09 00:00:49;;;;;;;4.50;2.10;;;10.60;99.90;;;;;;5108798;27;20111;-82
2023/08/09 00:03:15;;;;;;;4.68;1.90;;;10.70;99.90;;;;;;5130019;27;20183;-82
2023/08/09 00:05:40;;;;;;;4.72;2.05;;;10.60;99.90;;;;;;5082525;27;20034;-82
2023/08/09 00:08:06;;;;;;;4.47;1.88;;;10.60;99.90;;;;;;5105408;27;20376;-81
2023/08/09 00:10:33;;;;;;;4.50;2.00;;;10.60;99.90;;;;;;5099966;27;20124;-82
2023/08/09 00:12:59;;;;;;;5.10;1.77;;;10.60;99.90;;;;;;5119472;27;20043;-82
2023/08/09 00:15:25;;;;;;;8.63;2.30;;;10.60;99.90;;;;;;5110274;27;20030;-81
2023/08/09 00:17:51;;;;;;;2.97;1.73;;;10.60;99.90;;;;;;5115590;27;20127;-81
2023/08/09 00:20:16;;;;;;;4.72;1.98;;;10.60;99.90;;;;;;5091994;27;20038;-81
2023/08/09 00:22:42;;;;;;;5.20;1.83;;;10.70;99.90;;;;;;5103786;27;20617;-81
2023/08/09 00:25:10;;;;;;;4.68;2.30;;;10.60;99.90;;;;;;5089991;27;20039;-81
2023/08/09 00:27:37;;;;;;;4.30;1.95;;;10.60;99.90;;;;;;5120995;27;20049;-81
2023/08/09 00:30:04;;;;;;;4.70;1.98;;;10.60;99.90;;;;;;5101875;27;20458;-81
2023/08/09 00:32:30;;;;;;;7.20;1.92;;;10.60;99.90;;;;;;5124853;27;20071;-81
2023/08/09 00:34:56;;;;;;;3.53;1.90;;;10.80;99.90;;;;;;5082895;27;20070;-81
2023/08/09 00:37:22;;;;;;;3.65;2.03;;;10.70;99.90;;;;;;5116095;27;20050;-81
2023/08/09 00:39:49;;;;;;;3.88;1.95;;;10.70;99.90;;;;;;5087034;27;20066;-81
2023/08/09 00:42:15;;;;;;;2.22;1.73;;;10.70;99.90;;;;;;5102424;27;20524;-82
2023/08/09 00:44:40;;;;;;;6.88;2.50;;;10.60;99.90;;;;;;5103709;27;20067;-81
2023/08/09 00:47:07;;;;;;;3.78;2.00;;;10.60;99.90;;;;;;5104147;27;20398;-82
2023/08/09 00:49:37;;;;;;;4.85;2.00;;;10.60;99.90;;;;;;5099683;27;20430;-81
2023/08/09 00:52:03;;;;;;;3.55;2.00;;;10.60;99.90;;;;;;5128830;27;20051;-82
2023/08/09 00:54:29;;;;;;;3.05;2.28;;;10.60;99.90;;;;;;5088961;27;20129;-82
2023/08/09 00:56:55;;;;;;;3.65;2.38;;;10.60;99.90;;;;;;5109901;27;20115;-82
2023/08/09 00:59:21;;;;;;;4.25;1.92;;;10.60;99.90;;;;;;5099697;27;20122;-81
2023/08/09 01:01:46;;;;;;;2.70;1.98;;;10.70;99.90;;;;;;5112854;27;20177;-81
2023/08/09 01:04:13;;;;;;;7.45;2.33;;;10.70;99.90;;;;;;5130901;27;20510;-81
2023/08/09 01:06:56;;;;;;;2.90;1.90;;;10.60;99.90;;;;;;5093081;27;20507;-81
2023/08/09 01:09:59;;;;;;;2.83;2.40;;;10.60;99.90;;;;;;5092420;27;20159;-81
2023/08/09 01:12:34;;;;;;;4.15;2.20;;;10.60;99.90;;;;;;5086120;27;20395;-81
2023/08/09 01:15:02;;;;;;;3.67;2.30;;;10.60;99.90;;;;;;5127813;27;20094;-82
2023/08/09 01:17:31;;;;;;;4.00;2.28;;;10.60;99.90;;;;;;5109282;27;20038;-81
2023/08/09 01:19:58;;;;;;;3.78;2.10;;;10.60;99.90;;;;;;5094749;27;20848;-82
2023/08/09 01:22:31;;;;;;;3.63;2.08;;;10.50;99.90;;;;;;5110025;27;20051;-82
2023/08/09 01:25:06;;;;;;;5.65;2.20;;;10.60;99.90;;;;;;5083801;27;20403;-81
2023/08/09 01:27:32;;;;;;;;;;;10.50;99.90;;;;;;5099391;27;20040;-81
2023/08/09 01:29:59;;;;;;;4.70;2.05;;;10.50;99.90;;;;;;5097032;27;19991;-81
2023/08/09 01:32:25;;;;;;;5.40;2.22;;;10.50;99.90;;;;;;5085030;27;20288;-81
2023/08/09 01:34:52;;;;;;;3.03;1.77;;;10.40;99.90;;;;;;5087596;27;20079;-81
2023/08/09 01:37:19;;;;;;;3.75;2.22;;;10.40;99.90;;;;;;5089698;27;20036;-81
2023/08/09 01:39:48;;;;;;;4.15;2.40;;;10.30;99.90;;;;;;5092966;27;20035;-81
2023/08/09 01:42:14;;;;;;;4.57;2.15;;;10.30;99.90;;;;;;5087621;27;20057;-82
2023/08/09 01:44:40;;;;;;;4.05;2.53;;;10.30;99.90;;;;;;5121840;27;20056;-82
2023/08/09 01:47:07;;;;;;;6.43;2.33;;;10.20;99.90;;;;;;5111107;27;20045;-81
2023/08/09 01:49:46;;;;;;;9.18;2.42;;;10.10;99.90;;;;;;5108093;27;20043;-81
2023/08/09 01:52:12;;;;;;;7.53;2.47;;;10.10;99.90;;;;;;5117435;27;20038;-81
2023/08/09 01:54:37;;;;;;;3.78;2.30;;;10.10;99.90;;;;;;5089216;27;20035;-82
2023/08/09 01:57:03;;;;;;;4.22;2.28;;;10.00;99.90;;;;;;5126125;27;20039;-81
2023/08/09 01:59:29;;;;;;;3.33;2.40;;;10.10;99.90;;;;;;5106199;27;20066;-82
2023/08/09 02:01:55;;;;;;;3.70;2.25;;;10.00;99.90;;;;;;5135331;27;20940;-81
2023/08/09 02:04:20;;;;;;;5.18;2.58;;;10.00;99.90;;;;;;5091026;27;20446;-81
2023/08/09 02:06:46;;;;;;;4.57;2.55;;;10.00;99.90;;;;;;5106248;27;20041;-81
2023/08/09 02:09:12;;;;;;;6.72;2.25;;;10.00;99.90;;;;;;5088871;27;20154;-81
2023/08/09 02:11:37;;;;;;;5.85;2.45;;;10.00;99.90;;;;;;5096294;27;20043;-81
2023/08/09 02:14:03;;;;;;;4.72;2.67;;;10.00;99.90;;;;;;5085803;27;20075;-81
2023/08/09 02:16:29;;;;;;;5.20;2.90;;;10.00;99.90;;;;;;5110418;27;20149;-81
2023/08/09 02:18:55;;;;;;;8.55;3.10;;;10.00;99.90;;;;;;5098264;27;20047;-81
2023/08/09 02:21:21;;;;;;;6.68;2.60;;;10.00;99.90;;;;;;5092938;27;20387;-81
2023/08/09 02:23:47;;;;;;;6.40;2.85;;;9.90;99.90;;;;;;5088615;27;20054;-81
2023/08/09 02:26:14;;;;;;;4.38;2.78;;;9.90;99.90;;;;;;5093423;27;20143;-81
2023/08/09 02:28:39;;;;;;;4.90;2.58;;;9.90;99.90;;;;;;5105624;27;20421;-81
2023/08/09 02:31:08;;;;;;;5.13;2.65;;;10.00;99.90;;;;;;5104120;27;20394;-82
2023/08/09 02:33:34;;;;;;;4.63;2.50;;;9.90;99.90;;;;;;5093286;27;20126;-81
2023/08/09 02:36:01;;;;;;;5.00;2.50;;;9.90;99.90;;;;;;5091850;27;20067;-81
2023/08/09 02:38:28;;;;;;;7.03;3.15;;;9.80;99.90;;;;;;5105585;27;20045;-81
2023/08/09 02:40:55;;;;;;;6.07;2.65;;;9.80;99.90;;;;;;5104269;27;20031;-81
2023/08/09 02:43:24;;;;;;;5.95;2.63;;;9.80;99.90;;;;;;5093410;27;20035;-81
2023/08/09 02:45:50;;;;;;;5.95;2.67;;;9.80;99.90;;;;;;5121727;27;20177;-81
2023/08/09 02:48:16;;;;;;;4.43;2.88;;;9.80;99.90;;;;;;5117688;27;20118;-81
2023/08/09 02:50:42;;;;;;;5.05;2.53;;;9.80;99.90;;;;;;5093289;27;20189;-81
2023/08/09 02:53:08;;;;;;;4.97;2.50;;;9.70;99.90;;;;;;5102804;27;20225;-81
2023/08/09 02:55:34;;;;;;;4.18;2.72;;;9.80;99.90;;;;;;5113785;27;20050;-81
2023/08/09 02:58:03;;;;;;;6.57;2.63;;;9.70;99.90;;;;;;5114288;27;20056;-81
2023/08/09 03:00:29;;;;;;;4.25;2.63;;;9.70;99.90;;;;;;5091049;27;20039;-81
2023/08/09 03:02:55;;;;;;;4.30;2.72;;;9.80;99.90;;;;;;5106646;27;20047;-81
2023/08/09 03:05:20;;;;;;;5.72;2.75;;;9.70;99.90;;;;;;5108670;27;20589;-81
2023/08/09 03:07:46;;;;;;;3.38;2.55;;;9.70;99.90;;;;;;5087372;27;20039;-81
2023/08/09 03:10:12;;;;;;;4.60;2.97;;;9.70;99.90;;;;;;5122726;27;20039;-81
2023/08/09 03:12:38;;;;;;;6.43;2.85;;;9.70;99.90;;;;;;5107116;27;20031;-81
2023/08/09 03:15:05;;;;;;;4.60;2.83;;;9.70;99.90;;;;;;5117546;27;20362;-81
2023/08/09 03:17:31;;;;;;;6.45;2.83;;;9.70;99.90;;;;;;5113436;27;20154;-81
2023/08/09 03:19:57;;;;;;;6.93;2.60;;;9.70;99.90;;;;;;5096475;27;20378;-81
2023/08/09 03:22:23;;;;;;;5.00;2.95;;;9.80;99.90;;;;;;5111386;27;20080;-82
2023/08/09 03:24:50;;;;;;;3.42;2.55;;;9.70;99.90;;;;;;5090908;27;20031;-81
2023/08/09 03:27:18;;;;;;;4.93;2.72;;;9.60;99.90;;;;;;5088843;27;20023;-81
2023/08/09 03:29:44;;;;;;;4.15;2.42;;;9.60;99.90;;;;;;5121969;27;20393;-82
2023/08/09 03:32:09;;;;;;;3.83;2.55;;;9.50;99.90;;;;;;5132396;27;20046;-81
2023/08/09 03:34:35;;;;;;;5.20;2.60;;;9.50;99.90;;;;;;5110429;27;20043;-82
2023/08/09 03:37:01;;;;;;;6.32;2.70;;;9.60;99.90;;;;;;5115243;27;20434;-83
2023/08/09 03:39:27;;;;;;;5.20;3.08;;;9.50;99.90;;;;;;5091447;27;20054;-82
2023/08/09 03:41:52;;;;;;;4.40;3.00;;;9.50;99.90;;;;;;5112606;27;20031;-81
2023/08/09 03:44:18;;;;;;;5.35;3.00;;;9.50;99.90;;;;;;5100264;27;20488;-81
2023/08/09 03:46:44;;;;;;;6.40;3.05;;;9.50;99.90;;;;;;5088114;27;20093;-82
2023/08/09 03:49:10;;;;;;;6.97;2.90;;;9.50;99.90;;;;;;5096432;27;20035;-81
2023/08/09 03:51:35;;;;;;;7.40;2.80;;;9.50;99.90;;;;;;5092099;27;20076;-81
2023/08/09 03:54:01;;;;;;;6.05;3.05;;;9.50;99.90;;;;;;5089493;27;20035;-82
2023/08/09 03:56:27;;;;;;;4.68;2.88;;;9.50;99.90;;;;;;5111575;27;20109;-82
2023/08/09 03:58:53;;;;;;;6.53;3.30;;;9.50;99.90;;;;;;5096109;27;20138;-81
2023/08/09 04:01:19;;;;;;;8.07;3.00;;;9.50;99.90;;;;;;5094699;27;20166;-81
2023/08/09 04:03:44;;;;;;;6.80;3.25;;;9.50;99.90;;;;;;5092264;27;20041;-81
2023/08/09 04:06:14;;;;;;;4.97;3.10;;;9.50;99.90;;;;;;5104119;27;20070;-81
2023/08/09 04:08:40;;;;;;;5.15;3.08;;;9.70;99.90;;;;;;5089832;27;20039;-81
2023/08/09 04:11:07;;;;;;;4.15;3.00;;;9.60;99.90;;;;;;5106849;27;20035;-81
2023/08/09 04:13:33;;;;;;;4.75;3.13;;;9.50;99.90;;;;;;5105095;27;20474;-81
2023/08/09 04:15:59;;;;;;;4.30;3.03;;;9.50;99.90;;;;;;5094047;27;20051;-81
2023/08/09 04:18:25;;;;;;;4.60;3.20;;;9.50;99.90;;;;;;5108436;27;20550;-81
2023/08/09 04:20:50;;;;;;;5.35;3.00;;;9.60;99.90;;;;;;5118594;27;20046;-81
2023/08/09 04:23:18;;;;;;;6.22;3.17;;;9.60;99.90;;;;;;5090285;27;20038;-81
2023/08/09 04:25:44;;;;;;;6.40;3.40;;;9.60;99.90;;;;;;5104469;27;20074;-81
2023/08/09 04:28:10;;;;;;;7.28;3.38;;;9.60;99.90;;;;;;5107579;27;20138;-81
2023/08/09 04:30:36;;;;;;;6.95;3.05;;;9.60;99.90;;;;;;5112519;27;20110;-81
2023/08/09 04:33:05;;;;;;;5.30;3.10;;;9.60;99.90;;;;;;5090603;27;20545;-81
2023/08/09 04:35:33;;;;;;;7.05;3.03;;;9.70;99.90;;;;;;5103053;27;20039;-82
2023/08/09 04:37:59;;;;;;;4.82;3.35;;;9.70;99.90;;;;;;5122019;27;20463;-81
2023/08/09 04:40:25;;;;;;;6.82;3.17;;;9.80;99.90;;;;;;5097307;27;20039;-81
2023/08/09 04:42:54;;;;;;;6.85;3.08;;;9.80;99.90;;;;;;5101937;27;20039;-81
2023/08/09 04:45:28;;;;;;;5.95;3.05;;;9.90;99.90;;;;;;5102280;27;20521;-81
2023/08/09 04:47:54;;;;;;;4.82;2.95;;;9.90;99.90;;;;;;5080812;28;20055;-81
2023/08/09 04:50:20;;;;;;;4.07;3.05;;;9.90;99.90;;;;;;5117272;27;20065;-81
2023/08/09 04:52:46;;;;;;;6.53;3.33;;;10.00;99.90;;;;;;5082744;28;20681;-81
2023/08/09 04:55:12;;;;;;;7.38;3.10;;;10.10;99.90;;;;;;5117862;27;20106;-82
2023/08/09 04:57:38;;;;;;;4.97;3.05;;;10.20;99.90;;;;;;5082369;28;20380;-81
2023/08/09 05:00:08;;;;;;;5.55;3.00;;;10.30;99.90;;;;;;5100478;28;20028;-81
2023/08/09 05:02:36;;;;;;;5.97;2.95;;;10.40;99.90;;;;;;5082948;28;20040;-81
2023/08/09 05:05:03;;;;;;;4.80;3.05;;;10.40;99.90;;;;;;5099109;28;20044;-81
2023/08/09 05:07:29;;;;;;;5.78;2.92;;;10.60;99.90;;;;;;5098923;28;20048;-81
2023/08/09 05:09:55;;;;;;;7.55;2.80;;;10.70;99.90;;;;;;5080257;28;20027;-81
2023/08/09 05:12:20;;;;;;;4.10;2.83;;;10.80;99.90;;;;;;5081859;28;20463;-81
2023/08/09 05:14:46;;;;;;;3.92;2.80;;;10.80;99.90;;;;;;5101973;28;20122;-82
2023/08/09 05:17:12;;;;;;;5.38;3.00;;;10.90;99.90;;;;;;5083045;28;20424;-81
2023/08/09 05:19:38;;;;;;;5.85;2.80;;;11.00;99.90;;;;;;5112671;27;20032;-82
2023/08/09 05:22:03;;;;;;;5.40;2.88;;;11.10;99.90;;;;;;5101259;28;20446;-81
2023/08/09 05:24:29;;;;;;;4.70;2.97;;;11.20;99.90;;;;;;5079969;28;20047;-81
2023/08/09 05:26:55;;;;;;;7.18;3.42;;;11.30;99.90;;;;;;5131982;27;20097;-81
2023/08/09 05:29:20;;;;;;;3.50;2.60;;;11.40;99.90;;;;;;5100305;28;20470;-81
2023/08/09 05:31:46;;;;;;;4.22;2.70;;;11.60;99.90;;;;;;5083163;28;20081;-81
2023/08/09 05:34:12;;;;;;;6.28;2.45;;;11.70;99.90;;;;;;5102113;28;20402;-81
2023/08/09 05:36:37;;;;;;;5.57;2.55;;;11.80;99.90;;;;;;5099371;28;20054;-81
2023/08/09 05:39:03;;;;;;;4.40;2.40;;;11.90;99.90;;;;;;5130372;27;20040;-81
2023/08/09 05:41:29;;;;;;;6.30;2.80;;;12.00;99.90;;;;;;5098762;28;20617;-81
2023/08/09 05:43:55;;;;;;;4.60;2.58;;;12.10;99.90;;;;;;5081598;28;20056;-81
2023/08/09 05:46:21;;;;;;;3.78;2.20;;;12.20;99.90;;;;;;5100014;28;20062;-81
2023/08/09 05:48:46;;;;;;;3.22;2.20;;;12.30;99.90;;;;;;5081692;28;20051;-81
2023/08/09 05:51:12;;;;;;;4.10;2.42;;;12.40;99.90;;;;;;5101078;28;20588;-81
2023/08/09 05:53:37;;;;;;;4.80;2.47;;;12.50;99.90;;;;;;5094835;28;20519;-81
2023/08/09 05:56:03;;;;;;;3.50;2.47;;;12.60;99.90;;;;;;5119271;27;20043;-81
2023/08/09 05:58:29;;;;;;;4.03;2.25;;;12.70;99.90;;;;;;5066190;28;20407;-81
2023/08/09 06:00:54;;;;;;;5.45;2.65;;;12.80;99.90;;;;;;5085720;28;20039;-81
2023/08/09 06:03:20;;;;;;;4.15;2.22;;;12.80;99.90;;;;;;5091295;28;20103;-81
2023/08/09 06:05:46;;;;;;;2.72;2.20;;;13.00;99.90;;;;;;5083199;28;20028;-81
2023/08/09 06:08:11;;;;;;;6.05;2.05;;;13.10;99.90;;;;;;5081954;28;20040;-81
2023/08/09 06:10:37;;;;;;;6.18;2.58;;;13.20;99.90;;;;;;5082074;28;20094;-81
2023/08/09 06:13:03;;;;;;;4.85;2.13;;;13.20;99.90;;;;;;5083495;28;20118;-81
2023/08/09 06:15:29;;;;;;;4.85;2.40;;;13.40;99.90;;;;;;5101752;27;20126;-81
2023/08/09 06:17:54;;;;;;;3.10;2.10;;;13.50;99.90;;;;;;5081007;28;20184;-81
2023/08/09 06:20:21;;;;;;;3.28;2.00;;;13.60;99.90;;;;;;5085677;28;20032;-81
2023/08/09 06:22:48;;;;;;;2.70;1.83;;;13.80;99.90;;;;;;5103517;27;20104;-81
2023/08/09 06:25:14;;;;;;;3.28;2.10;;;13.90;99.90;;;;;;5067059;28;20035;-81
2023/08/09 06:27:39;;;;;;;3.97;1.98;;;14.00;99.90;;;;;;5102566;27;20050;-81
2023/08/09 06:30:06;;;;;;;4.07;1.95;;;14.10;99.90;;;;;;5101863;27;20454;-81
2023/08/09 06:32:32;;;;;;;5.45;1.90;;;14.20;99.90;;;;;;5085589;28;20035;-81
2023/08/09 06:34:59;;;;;;;6.25;2.10;;;14.30;99.90;;;;;;5087787;28;20482;-81
2023/08/09 06:37:25;;;;;;;4.35;2.05;;;14.40;99.90;;;;;;5101925;27;20036;-82
2023/08/09 06:39:50;;;;;;;6.28;1.73;;;14.50;99.90;;;;;;5090936;28;20105;-81
2023/08/09 06:42:16;;;;;;;2.70;1.67;;;14.60;99.90;;;;;;5087656;28;20129;-81
2023/08/09 06:44:42;;;;;;;4.90;1.48;;;14.70;99.90;;;;;;5095968;28;20472;-81
2023/08/09 06:47:08;;;;;;;3.58;1.80;;;14.80;99.90;;;;;;5097555;27;20046;-81
2023/08/09 06:49:34;;;;;;;4.60;1.75;;;15.00;99.90;;;;;;5082599;28;20040;-81
2023/08/09 06:52:00;;;;;;;5.57;1.65;;;15.10;99.90;;;;;;5070858;28;20126;-81
2023/08/09 06:54:26;;;;;;;3.08;1.60;;;15.20;99.90;;;;;;5086554;28;20534;-81
2023/08/09 06:56:52;;;;;;;3.63;1.52;;;15.30;99.90;;;;;;5097693;28;20061;-81
2023/08/09 06:59:18;;;;;;;1.98;1.50;;;15.30;99.90;;;;;;5067667;28;20055;-81
2023/08/09 07:01:47;;;;;;;4.93;1.70;;;15.50;99.90;;;;;;5092851;28;20044;-81
2023/08/09 07:04:15;;;;;;;2.72;1.42;;;15.50;99.90;;;;;;5067592;28;20047;-81
2023/08/09 07:06:40;;;;;;;2.80;1.40;;;15.60;99.90;;;;;;5082741;28;20038;-81
2023/08/09 07:09:06;;;;;;;3.90;1.33;;;15.80;99.90;;;;;;5067267;28;21292;-81
2023/08/09 07:11:32;;;;;;;1.95;1.20;;;15.80;99.90;;;;;;5086847;28;20032;-81
2023/08/09 07:13:58;;;;;;;3.25;1.30;;;15.90;99.90;;;;;;5085374;28;20478;-81
2023/08/09 07:16:24;;;;;;;3.72;1.35;;;15.90;99.90;;;;;;5087566;28;20513;-81
2023/08/09 07:18:50;;;;;;;3.75;1.42;;;16.10;99.90;;;;;;5086727;28;20031;-81
2023/08/09 07:21:16;;;;;;;2.70;1.38;;;16.20;99.90;;;;;;5090225;28;20044;-81
2023/08/09 07:23:41;;;;;;;2.10;1.20;;;16.30;99.90;;;;;;5072135;28;20042;-81
2023/08/09 07:26:07;;;;;;;3.90;1.15;;;16.40;99.90;;;;;;5070756;28;20043;-81
2023/08/09 07:28:33;;;;;;;3.25;1.40;;;16.40;99.90;;;;;;5087182;28;20078;-81
2023/08/09 07:30:58;;;;;;;1.88;1.20;;;16.50;99.90;;;;;;5112126;27;20028;-81
2023/08/09 07:33:24;;;;;;;3.42;1.13;;;16.60;99.90;;;;;;5066583;28;20544;-81
2023/08/09 07:35:50;;;;;;;4.75;1.10;;;16.70;99.90;;;;;;5081559;28;20035;-81
2023/08/09 07:38:16;;;;;;;3.75;0.90;;;16.90;99.90;;;;;;5062854;28;20088;-82
2023/08/09 07:40:42;;;;;;;3.25;1.15;;;16.80;99.90;;;;;;5065557;28;20399;-81
2023/08/09 07:43:08;;;;;;;2.40;1.15;;;16.90;99.90;;;;;;5084259;28;20036;-81
2023/08/09 07:45:34;;;;;;;2.80;1.00;;;17.00;99.90;;;;;;5062670;28;20052;-81
2023/08/09 07:48:00;;;;;;;2.28;1.20;;;17.10;99.90;;;;;;5122339;27;21763;-81
2023/08/09 07:50:26;;;;;;;2.95;1.00;;;17.10;99.90;;;;;;5072981;28;20032;-81
2023/08/09 07:52:52;;;;;;;2.63;1.10;;;17.20;99.90;;;;;;5070474;28;20100;-82
2023/08/09 07:55:18;;;;;;;4.43;1.40;;;17.30;99.90;;;;;;5085204;28;20048;-81
2023/08/09 07:57:44;;;;;;;4.57;0.95;;;17.30;99.90;;;;;;5066817;28;20066;-81
2023/08/09 08:00:18;;;;;;;1.25;0.90;;;17.40;99.90;;;;;;5071393;28;20078;-81
2023/08/09 08:02:46;;;;;;;4.25;1.00;;;17.40;99.90;;;;;;5083110;28;20035;-81
2023/08/09 08:05:13;;;;;;;3.17;1.17;;;17.50;99.90;;;;;;5082069;28;20043;-81
2023/08/09 08:07:39;;;;;;;4.68;1.00;;;17.60;99.90;;;;;;5109080;27;20524;-81
2023/08/09 08:10:09;;;;;;;2.05;1.00;;;17.60;99.90;;;;;;5080645;28;20146;-81
2023/08/09 08:12:38;;;;;;;4.15;1.02;;;17.60;99.90;;;;;;5094918;28;20040;-82
2023/08/09 08:15:05;;;;;;;2.15;0.90;;;17.70;99.90;;;;;;5095355;28;20071;-81
2023/08/09 08:17:31;;;;;;;1.55;0.80;;;17.80;99.90;;;;;;5067752;28;20036;-82
2023/08/09 08:20:01;;;;;;;2.05;0.93;;;17.80;99.90;;;;;;5112228;27;20046;-81
2023/08/09 08:22:26;;;;;;;2.83;1.08;;;17.90;99.90;;;;;;5082453;28;20645;-81
2023/08/09 08:24:52;;;;;;;2.55;0.70;;;17.90;99.90;;;;;;5094417;27;20043;-82
2023/08/09 08:27:18;;;;;;;3.33;0.80;;;17.70;99.90;;;;;;5081213;28;20529;-81
2023/08/09 08:29:44;;;;;;;2.00;0.70;;;17.90;99.90;;;;;;5114525;27;20036;-82
2023/08/09 08:32:10;;;;;;;1.75;0.82;;;18.10;99.90;;;;;;5062507;28;20050;-81
2023/08/09 08:34:37;;;;;;;1.30;0.82;;;18.30;99.90;;;;;;5060979;28;20519;-81
2023/08/09 08:37:04;;;;;;;1.77;0.57;;;18.40;99.90;;;;;;5108185;27;20044;-82
2023/08/09 08:39:31;;;;;;;2.53;0.98;;;18.40;99.90;;;;;;5093968;27;20480;-81
2023/08/09 08:41:56;;;;;;;1.65;0.85;;;18.80;99.90;;;;;;5077744;28;20036;-81
2023/08/09 08:44:24;;;;;;;2.35;1.10;;;18.90;99.90;;;;;;5079400;28;20047;-80
2023/08/09 08:46:58;;;;;;;1.50;0.73;;;19.00;99.90;;;;;;5109950;27;20403;-82
2023/08/09 08:49:24;;;;;;;4.85;0.82;;;19.20;99.90;;;;;;5079663;28;20182;-82
2023/08/09 08:51:54;;;;;;;2.50;0.90;;;19.40;99.90;;;;;;5080702;28;20524;-81
2023/08/09 08:54:19;;;;;;;1.70;0.90;;;19.20;99.90;;;;;;5078296;28;20056;-81
2023/08/09 08:56:47;;;;;;;2.47;1.05;;;18.70;99.90;;;;;;5063671;28;20040;-82
2023/08/09 08:59:14;;;;;;;2.55;1.17;;;18.60;99.90;;;;;;5069621;28;20039;-81
2023/08/09 09:01:39;;;;;;;2.13;0.85;;;18.50;99.90;;;;;;5084819;28;20208;-81
2023/08/09 09:04:05;;;;;;;1.90;0.82;;;18.60;99.90;;;;;;5096187;28;20144;-81
2023/08/09 09:06:31;;;;;;;1.27;0.98;;;18.60;99.90;;;;;;5070587;28;20181;-82
2023/08/09 09:08:57;;;;;;;2.97;0.90;;;18.50;99.90;;;;;;5078205;28;20032;-81
2023/08/09 09:11:23;;;;;;;4.18;1.17;;;18.60;99.90;;;;;;5087593;28;20382;-81
2023/08/09 09:13:50;;;;;;;0.73;0.70;;;19.20;99.90;;;;;;5063035;28;20069;-81
2023/08/09 09:16:20;;;;;;;3.08;0.85;;;19.00;99.90;;;;;;5080340;28;20048;-82
2023/08/09 09:18:48;;;;;;;3.20;0.90;;;19.20;99.90;;;;;;5078637;28;20059;-81
2023/08/09 09:21:30;;;;;;;3.55;0.98;;;19.60;99.90;;;;;;5066619;28;20040;-82
2023/08/09 09:23:56;;;;;;;2.15;0.90;;;19.50;99.90;;;;;;5110294;27;20032;-81
2023/08/09 09:26:23;;;;;;;3.60;1.23;;;19.40;99.90;;;;;;5118864;27;20475;-81
2023/08/09 09:28:50;;;;;;;2.67;0.75;;;20.00;99.90;;;;;;5081638;28;20067;-81
2023/08/09 09:31:19;;;;;;;1.45;0.75;;;19.80;99.90;;;;;;5080530;28;20101;-81
2023/08/09 09:33:51;;;;;;;3.08;0.93;;;19.80;99.90;;;;;;5099143;27;20048;-81
2023/08/09 09:36:17;;;;;;;2.60;0.80;;;20.00;99.90;;;;;;5083555;28;20136;-81
2023/08/09 09:38:50;;;;;;;2.53;0.70;;;20.20;99.90;;;;;;5080389;28;20039;-81
2023/08/09 09:41:16;;;;;;;2.35;0.85;;;20.40;99.90;;;;;;5123705;27;20448;-81
2023/08/09 09:43:43;;;;;;;2.97;1.00;;;20.20;99.90;;;;;;5099850;27;20085;-81
2023/08/09 09:46:20;;;;;;;3.05;1.00;;;19.70;99.90;;;;;;5067187;28;20148;-81
2023/08/09 09:48:48;;;;;;;2.05;0.90;;;19.40;99.90;;;;;;5083269;28;20126;-81
2023/08/09 09:51:19;;;;;;;2.15;0.90;;;19.10;99.90;;;;;;5084961;28;20039;-81
2023/08/09 09:53:48;;;;;;;1.90;0.80;;;19.00;99.90;;;;;;5083204;28;20188;-81
2023/08/09 09:56:14;;;;;;;3.97;1.30;;;19.50;99.90;;;;;;5117528;27;20036;-81
2023/08/09 09:58:41;;;;;;;2.80;0.77;;;20.00;99.90;;;;;;5090932;28;20032;-81
2023/08/09 10:01:09;;;;;;;0.90;0.80;;;20.30;99.90;;;;;;5116332;27;20115;-81
2023/08/09 10:03:40;;;;;;;1.15;0.85;;;20.30;99.90;;;;;;5089255;28;20503;-81
2023/08/09 10:06:13;;;;;;;1.23;0.80;;;20.60;99.90;;;;;;5085189;28;20036;-81
2023/08/09 10:08:41;;;;;;;2.22;0.98;;;20.60;99.90;;;;;;5081732;28;20526;-81
2023/08/09 10:11:08;;;;;;;2.05;1.30;;;19.90;99.90;;;;;;5083802;28;20391;-82
2023/08/09 10:13:35;;;;;;;2.40;0.80;;;19.50;99.90;;;;;;5116482;27;20035;-81
2023/08/09 10:16:05;;;;;;;2.17;0.98;;;19.50;99.90;;;;;;5070895;28;20490;-81
2023/08/09 10:18:39;;;;;;;1.95;0.98;;;19.60;99.90;;;;;;5098343;27;20062;-81
2023/08/09 10:21:06;;;;;;;1.90;0.75;;;19.60;99.90;;;;;;5066972;28;20059;-82
2023/08/09 10:23:32;;;;;;;3.50;0.82;;;19.70;99.90;;;;;;5069513;28;20039;-81
2023/08/09 10:25:58;;;;;;;1.80;0.95;;;19.40;99.90;;;;;;5102813;27;20032;-82
2023/08/09 10:28:44;;;;;;;1.75;0.90;;;19.40;99.90;;;;;;5086720;28;20039;-82
2023/08/09 10:31:13;;;;;;;2.25;1.05;;;19.30;99.90;;;;;;5080679;28;20032;-81
2023/08/09 10:34:00;;;;;;;2.25;0.90;;;19.40;99.90;;;;;;5086901;28;20114;-81
2023/08/09 10:36:34;;;;;;;2.03;0.80;;;19.30;99.90;;;;;;5088705;28;20051;-81
2023/08/09 10:39:15;;;;;;;2.15;1.13;;;19.40;99.90;;;;;;5113823;27;20452;-81
2023/08/09 10:41:54;;;;;;;1.35;0.80;;;19.30;99.90;;;;;;5084451;28;20119;-81
2023/08/09 10:44:36;;;;;;;2.25;0.90;;;19.90;99.90;;;;;;5116325;27;20156;-81
2023/08/09 10:47:11;;;;;;;2.78;1.00;;;20.30;99.90;;;;;;5068591;28;20036;-81
2023/08/09 10:49:49;;;;;;;1.95;0.80;;;20.20;99.90;;;;;;5096285;28;20108;-82
2023/08/09 10:52:19;;;;;;;6.03;1.17;;;20.70;99.90;;;;;;5080253;28;20055;-82
2023/08/09 10:54:46;;;;;;;0.88;0.70;;;20.50;99.90;;;;;;5086697;28;20071;-81
2023/08/09 10:57:14;;;;;;;2.05;0.73;;;20.40;99.90;;;;;;5086298;28;20036;-81
2023/08/09 10:59:41;;;;;;;1.58;0.90;;;20.10;99.90;;;;;;5103078;27;20162;-81
2023/08/09 11:02:07;;;;;;;1.98;1.05;;;19.70;99.90;;;;;;5081776;28;20040;-81
2023/08/09 11:04:34;;;;;;;3.30;0.90;;;20.20;99.90;;;;;;5064513;28;20279;-81
2023/08/09 11:07:01;;;;;;;1.42;0.95;;;20.50;99.90;;;;;;5089910;28;20039;-81
2023/08/09 11:09:27;;;;;;;1.48;0.82;;;20.10;99.90;;;;;;5083269;28;20032;-82
2023/08/09 11:11:53;;;;;;;1.02;0.80;;;19.80;99.90;;;;;;5092380;27;20024;-81
2023/08/09 11:14:22;;;;;;;1.63;1.10;;;20.20;99.90;;;;;;5065691;28;20503;-81
2023/08/09 11:16:49;;;;;;;1.67;0.90;;;21.00;99.90;;;;;;5067174;28;20040;-82
2023/08/09 11:19:21;;;;;;;2.67;0.95;;;21.20;99.90;;;;;;5067529;28;20094;-82
2023/08/09 11:21:52;;;;;;;1.70;0.93;;;21.50;99.90;;;;;;5064760;28;20365;-81
2023/08/09 11:24:24;;;;;;;2.00;1.00;;;21.30;99.90;;;;;;5080097;28;20048;-82
2023/08/09 11:26:55;;;;;;;1.73;1.02;;;20.90;99.90;;;;;;5081660;28;20086;-82
2023/08/09 11:29:22;;;;;;;4.72;1.15;;;20.10;99.90;;;;;;5082614;28;20027;-82
2023/08/09 11:31:50;;;;;;;1.80;0.90;;;19.60;99.90;;;;;;5094857;27;20173;-81
2023/08/09 11:34:18;;;;;;;3.03;1.13;;;19.90;99.90;;;;;;5081535;28;20157;-81
2023/08/09 11:36:45;;;;;;;1.65;1.00;;;20.70;99.90;;;;;;5075616;28;20495;-82
2023/08/09 11:39:13;;;;;;;1.17;0.80;;;20.90;99.90;;;;;;5110324;27;20482;-82
2023/08/09 11:41:55;;;;;;;2.33;1.00;;;21.00;99.90;;;;;;5069514;28;20046;-82
2023/08/09 11:44:38;;;;;;;3.55;1.00;;;20.10;99.90;;;;;;5090038;28;20082;-82
2023/08/09 11:47:04;;;;;;;2.20;1.08;;;20.00;99.90;;;;;;5080365;28;20147;-81
2023/08/09 11:49:32;;;;;;;4.90;1.15;;;19.70;99.90;;;;;;5111845;27;20154;-81
2023/08/09 11:52:01;;;;;;;1.90;1.10;;;20.50;99.90;;;;;;5080825;28;20043;-81
2023/08/09 11:54:28;;;;;;;2.13;1.00;;;21.10;99.90;;;;;;5078683;28;20036;-82
2023/08/09 11:56:55;;;;;;;1.27;0.88;;;20.90;99.90;;;;;;5100297;27;20421;-82
2023/08/09 11:59:24;;;;;;;1.35;1.10;;;20.30;99.90;;;;;;5083986;28;20397;-82
2023/08/09 12:01:57;;;;;;;1.90;1.05;;;19.90;99.90;;;;;;5114152;27;20039;-82
2023/08/09 12:04:25;;;;;;;3.20;1.10;;;20.90;99.90;;;;;;5081842;28;20047;-81
2023/08/09 12:07:00;;;;;;;1.60;1.00;;;21.40;99.90;;;;;;5078369;28;20051;-82
2023/08/09 12:09:39;;;;;;;2.25;0.90;;;21.20;99.90;;;;;;5080972;28;20418;-83
2023/08/09 12:12:18;;;;;;;2.00;0.90;;;20.60;99.90;;;;;;5081557;28;20471;-82
2023/08/09 12:14:50;;;;;;;3.08;1.02;;;20.80;99.90;;;;;;5068174;28;20378;-82
2023/08/09 12:17:22;;;;;;;0.93;0.85;;;21.50;99.90;;;;;;5084306;28;20044;-82
2023/08/09 12:19:48;;;;;;;4.80;1.02;;;22.30;99.90;;;;;;5082852;28;20043;-82
2023/08/09 12:22:14;;;;;;;1.42;0.80;;;21.60;99.90;;;;;;5087916;28;20048;-82
2023/08/09 12:24:43;;;;;;;3.53;1.23;;;21.60;99.90;;;;;;5082369;28;20051;-82
2023/08/09 12:27:09;;;;;;;1.05;0.88;;;21.10;99.90;;;;;;5090919;28;20040;-82
2023/08/09 12:29:36;;;;;;;4.05;1.17;;;20.80;99.90;;;;;;5093317;28;20036;-82
2023/08/09 12:32:02;;;;;;;2.78;1.30;;;20.40;99.90;;;;;;5081277;28;20105;-82
2023/08/09 12:34:29;;;;;;;3.15;1.05;;;20.00;99.90;;;;;;5079808;28;20229;-82
2023/08/09 12:36:56;;;;;;;1.88;1.17;;;19.90;99.90;;;;;;5064121;28;20036;-82
2023/08/09 12:39:22;;;;;;;2.05;1.33;;;19.70;99.90;;;;;;5063636;28;20042;-82
2023/08/09 12:41:47;;;;;;;4.07;1.10;;;19.70;99.90;;;;;;5079448;28;20032;-82
2023/08/09 12:44:15;;;;;;;4.28;1.05;;;19.60;99.90;;;;;;5083649;28;20181;-82
2023/08/09 12:46:41;;;;;;;2.45;1.00;;;19.60;99.90;;;;;;5101404;28;20036;-82
2023/08/09 12:49:07;;;;;;;2.33;1.30;;;19.80;99.90;;;;;;5079188;28;20046;-83